• Join FlightAware (Why Join?)
  • Login
  • US Flag 
01:28AM EDT


 

Airport Tracker/Info


-or-


 

Live Flight TrackerFlight Track Log ✈ GJS3649 ✈ 11-Jul-2013 ✈ KTUL - KORD

Flight Track Log - Related Links

Times and Time Zones

All times are in EDT time to prevent confusion due to time zone crossing. See the GJS3649 flight status page for this flight to view local times or setup timezone preferences in your user account.

Time Position Orientation Groundspeed Altitude Reporting Facility
EDT Latitude Longitude Course Direction KTS MPH feet Rate Location/Type
07:10AM 36.1844 -95.8828 39° Northeast 158 182 1,100  Level Kansas City Center
07:12AM 36.1258 -95.8619 164° South 201 231 3,600 1,860 Climbing Kansas City Center
07:13AM 36.1272 -95.7792 89° East 268 308 5,500 2,040 Climbing Kansas City Center
07:14AM 36.3398 -95.4558 61° Northeast  Level FlightAware Approximate
07:14AM 36.1728 -95.7006 54° Northeast 296 341 8,000  Level Kansas City Center
07:15AM 36.3876 -95.3508 60° Northeast  Level FlightAware Approximate
07:15AM 36.2147 -95.6219 57° Northeast 285 328 10,300  Level Kansas City Center
07:16AM 36.4365 -95.2468 39° Northeast  Level FlightAware Approximate
07:16AM 36.2619 -95.5322 57° Northeast 304 350 11,900  Level Kansas City Center
07:17AM 36.3275 -95.4122 56° Northeast 351 404 13,700 1,440 Climbing Kansas City Center
07:18AM 36.3839 -95.3044 57° Northeast 380 437 14,900 1,380 Climbing Kansas City Center
07:19AM 36.4408 -95.1992 56° Northeast 395 455 16,500 1,500 Climbing Kansas City Center
07:20AM 36.5067 -95.0756 56° Northeast 402 463 18,000 1,380 Climbing Kansas City Center
07:21AM 36.5700 -94.9553 57° Northeast 412 474 19,400 1,020 Climbing Kansas City Center
07:22AM 36.6353 -94.8294 57° Northeast 425 489 20,100 840 Climbing Kansas City Center
07:23AM 36.7044 -94.7008 56° Northeast 439 505 21,100 960 Climbing Kansas City Center
07:24AM 36.7714 -94.5706 57° Northeast 444 511 22,100 900 Climbing Kansas City Center
07:25AM 36.8414 -94.4394 56° Northeast 451 519 23,000 780 Climbing Kansas City Center
07:26AM 36.9411 -94.3400 39° Northeast 456 525 23,800 780 Climbing Kansas City Center
07:27AM 37.0419 -94.2417 38° Northeast 458 527 24,600 780 Climbing Kansas City Center
07:28AM 37.1439 -94.1422 38° Northeast 463 533 25,400 900 Climbing Kansas City Center
07:29AM 37.2500 -94.0367 38° Northeast 463 533 26,500 1,260 Climbing Kansas City Center
07:30AM 37.3506 -93.9369 38° Northeast 460 529 28,000 1,500 Climbing Kansas City Center
07:31AM 37.4478 -93.8411 38° Northeast 448 516 29,600 1,320 Climbing Kansas City Center
07:32AM 37.5394 -93.7467 39° Northeast 432 497 30,700 660 Climbing Kansas City Center
07:33AM 37.6356 -93.6508 38° Northeast 435 501 31,000 120 Climbing Kansas City Center
07:34AM 37.7347 -93.5514 38° Northeast 446 513 31,000  Level Kansas City Center
07:35AM 37.8556 -93.4300 38° Northeast 457 526 31,000  Level Kansas City Center
07:36AM 37.9542 -93.3308 38° Northeast 454 522 31,000  Level Kansas City Center
07:37AM 38.0539 -93.2281 39° Northeast 456 525 31,000  Level Kansas City Center
07:38AM 38.1517 -93.1294 38° Northeast 452 520 31,000  Level Kansas City Center
07:39AM 38.2506 -93.0286 39° Northeast 451 519 31,000  Level Kansas City Center
07:40AM 38.3481 -92.9289 39° Northeast 448 516 31,000  Level Kansas City Center
07:41AM 38.4469 -92.8264 39° Northeast 450 518 31,000  Level Kansas City Center
07:42AM 38.5467 -92.7242 39° Northeast 455 524 31,000  Level Kansas City Center
07:43AM 38.6475 -92.6189 39° Northeast 460 529 31,000  Level Kansas City Center
07:44AM 38.7486 -92.5133 39° Northeast 464 534 31,000  Level Kansas City Center
07:45AM 38.8508 -92.4081 39° Northeast 467 537 31,000  Level Kansas City Center
07:46AM 38.9528 -92.2972 40° Northeast 472 543 31,000  Level Kansas City Center
07:47AM 39.0569 -92.1911 38° Northeast 474 545 31,000  Level Kansas City Center
07:48AM 39.1497 -92.0661 46° Northeast 482 555 31,000  Level Kansas City Center
07:49AM 39.2325 -91.9228 53° Northeast 492 566 31,000  Level Kansas City Center
07:50AM 39.3314 -91.8094 42° Northeast 493 567 31,000  Level Kansas City Center
07:51AM 39.4292 -91.6969 42° Northeast 483 556 31,000  Level Kansas City Center
07:52AM 39.5261 -91.5825 42° Northeast 479 551 31,000  Level Kansas City Center
07:53AM 39.6403 -91.4478 42° Northeast 474 545 31,000  Level Kansas City Center
07:54AM 39.7347 -91.3356 42° Northeast 469 540 31,000  Level Kansas City Center
07:55AM 39.8275 -91.2239 43° Northeast 464 534 31,000  Level Kansas City Center
07:56AM 39.9208 -91.1108 43° Northeast 462 532 31,000  Level Kansas City Center
07:57AM 40.0172 -90.9975 42° Northeast 467 537 31,000  Level Kansas City Center
07:58AM 40.1136 -90.8794 43° Northeast 467 537 31,000  Level Kansas City Center
07:59AM 40.2064 -90.7583 45° Northeast 470 541 31,000  Level Kansas City Center
08:00AM 40.2900 -90.6275 50° Northeast 469 540 31,000  Level Kansas City Center
08:02AM 40.3756 -90.4986 49° Northeast 467 537 31,000  Level Kansas City Center
08:03AM 40.4600 -90.3706 49° Northeast 465 535 31,000  Level Kansas City Center
08:04AM 40.5536 -90.2253 50° Northeast 465 535 31,000 -300 Level Kansas City Center
08:05AM 40.6378 -90.0964 49° Northeast 467 537 30,500 -960 Descending Kansas City Center
08:06AM 40.7211 -89.9700 49° Northeast 463 533 29,100 -1,380 Descending Kansas City Center
08:07AM 40.8028 -89.8442 49° Northeast 468 539 27,700 -1,440 Descending Kansas City Center
08:08AM 40.9244 -89.6500 50° Northeast 465 535 25,700 -1,500 Descending Chicago Center
08:09AM 41.0197 -89.4992 50° Northeast 472 543 24,100 -840 Descending Chicago Center
08:10AM 41.1022 -89.3694 50° Northeast 462 532 24,000 -960 Descending Chicago Center
08:11AM 41.1828 -89.2408 50° Northeast 457 526 22,200 -2,280 Descending Chicago Center
08:12AM 41.2661 -89.1078 50° Northeast 449 517 19,300 -2,760 Descending Chicago Center
08:13AM 41.3397 -88.9875 51° Northeast 425 489 16,600 -2,700 Descending Chicago Center
08:14AM 41.4117 -88.8706 51° Northeast 411 473 13,800 -2,700 Descending Chicago Center
08:15AM 41.4814 -88.7608 50° Northeast 391 450 11,100 -1,320 Descending Chicago Center
08:16AM 41.5478 -88.6192 58° Northeast 380 437 11,100  Level Chicago Center
08:17AM 41.5967 -88.4947 62° Northeast 378 435 11,100 -60 Level Chicago Center
08:18AM 41.6581 -88.3811 54° Northeast 376 433 11,000 -300 Descending Chicago Center
08:19AM 41.7167 -88.2814 52° Northeast 343 395 10,500 -1,020 Descending Chicago Center
08:20AM 41.7672 -88.1953 52° Northeast 299 344 9,000 -1,500 Descending Chicago Center
08:21AM 41.8139 -88.1158 52° Northeast 277 319 7,500 -1,020 Descending Chicago Center
08:22AM 41.8542 -88.0422 54° Northeast 248 285 7,000 -240 Descending Chicago Center
08:23AM 41.8833 -87.9833 56° Northeast 188 216 7,100  Climbing Chicago TRACON
08:24AM 41.8833 -87.9167 90° East 194 223 7,100  Level Chicago TRACON
08:25AM 41.8833 -87.8333 90° East 191 220 7,100 -780 Level Chicago TRACON
08:26AM 41.8833 -87.7667 90° East 190 219 5,600 -1,500 Descending Chicago TRACON
08:27AM 41.9000 -87.7167 66° East 184 212 4,200 -1,260 Descending Chicago TRACON
08:28AM 41.9500 -87.7333 346° North 176 203 3,100 -1,200 Descending Chicago TRACON
08:29AM 41.9667 -87.7833 294° West 157 181 1,900 -1,140 Descending Chicago TRACON
08:30AM 41.9706 -87.8125 280° West 159 183 1,500 -600 Descending Chicago Center
08:31AM 41.9689 -87.8642 268° West 153 176 1,000 -360 Descending Chicago Center
08:32AM 41.9689 -87.9189 270° West 152 175 800 -240 Descending Chicago Center